Latest Weather Observations for Moranbah Airport

IDQ60801

Issued at 5:35 pm EST Thursday 18 September 2014 (issued every 30 minutes, with the page automatically refreshed every 10 minutes)

About weather observations | Map of weather stations | Latest weather observations for QLD | Other Formats
Station Details ID: 034035 Name: MORANBAH AIRPORT Lat: -22.06 Lon: 148.08 Height: 232.2 m
Data from the previous 72 hours. | See also: Recent months at Moranbah Airport
Date/Time
EST
Temp
°C
App
Temp
°C
Dew
Point
Rel
Hum
%
Delta-T
°C
Wind Press
QNH
hPa
Press
MSL
hPa
Rain
since 9 am
mm
Dir
 
Spd
km/h
Gust
km/h
Spd
kts
Gust
kts
18/05:30pm 27.3 23.4 -1.6 15 13.3 ENE 9 19 5 10 1016.0 1015.2 0.0
18/05:00pm 28.2 24.4 -3.9 12 14.3 SSE 7 13 4 7 1015.7 1014.9 0.0
18/04:30pm 28.4 24.4 -2.6 13 14.1 S 9 15 5 8 1015.5 1014.6 0.0
18/04:00pm 28.3 24.6 -2.7 13 14.1 SE 7 11 4 6 1015.5 1014.6 0.0
18/03:30pm 29.0 25.5 -1.2 14 14.2 ESE 7 17 4 9 1015.5 1014.6 0.0
18/03:00pm 29.1 24.7 -2.1 13 14.4 ESE 11 20 6 11 1015.7 1014.9 0.0
18/02:30pm 28.1 23.6 -2.9 13 14.0 S 11 19 6 10 1016.0 1015.2 0.0
18/02:00pm 28.7 24.1 -1.4 14 14.0 SSW 13 24 7 13 1016.3 1015.5 0.0
18/01:30pm 27.8 23.2 -1.2 15 13.5 E 13 17 7 9 1016.9 1016.0 0.0
18/01:00pm 27.4 21.7 -0.6 16 13.1 SSE 19 22 10 12 1017.4 1016.5 0.0
18/12:30pm 28.5 22.8 -0.6 15 13.8 S 19 26 10 14 1017.8 1016.9 0.0
18/12:00pm 27.4 22.2 0.2 17 12.9 SE 17 28 9 15 1018.5 1017.6 0.0
18/11:30am 26.9 21.4 2.1 20 12.2 ESE 20 30 11 16 1019.1 1018.2 0.0
18/11:00am 26.6 20.7 1.8 20 12.0 ESE 22 37 12 20 1019.7 1018.9 0.0
18/10:30am 26.1 20.0 2.7 22 11.5 ESE 24 32 13 17 1020.1 1019.3 0.0
18/10:00am 24.3 17.3 1.9 23 10.7 SE 28 35 15 19 1020.6 1019.8 0.0
18/09:30am 24.0 16.9 1.6 23 10.7 SE 28 37 15 20 1020.9 1020.1 0.0
18/09:00am 22.9 15.4 1.3 24 10.1 SE 30 43 16 23 1020.9 1020.1 0.0
18/08:30am 22.3 14.4 1.3 25 9.8 SE 32 41 17 22 1020.8 1020.0 0.0
18/08:00am 21.1 13.7 1.9 28 9.0 SE 30 39 16 21 1020.4 1019.6 0.0
18/07:30am 19.8 14.6 2.6 32 8.1 SE 19 24 10 13 1020.1 1019.3 0.0
18/07:00am 16.8 12.7 2.4 38 6.6 SE 13 17 7 9 1019.8 1019.0 0.0
18/06:30am 13.7 9.2 2.3 46 5.1 SSE 15 17 8 9 1019.3 1018.4 0.0
18/06:00am 10.2 8.0 3.5 63 3.0 SSE 4 6 2 3 1018.9 1018.0 0.0
18/05:30am 10.1 7.8 4.9 70 2.4 S 6 7 3 4 1018.3 1017.4 0.0
18/05:00am 11.3 10.4 6.0 70 2.5 CALM 0 7 0 4 1017.8 1016.9 0.0
18/04:30am 12.5 11.7 6.3 66 3.0 CALM 0 0 0 0 1017.4 1016.5 0.0
18/04:00am 14.2 11.6 6.3 59 3.8 N 9 9 5 5 1017.2 1016.3 0.0
18/03:30am 15.4 12.9 6.4 55 4.4 N 9 11 5 6 1017.0 1016.1 0.0
18/03:00am 15.9 13.0 6.6 54 4.6 N 11 13 6 7 1016.9 1016.0 0.0
18/02:30am 16.8 14.9 6.6 51 5.1 N 6 13 3 7 1017.2 1016.3 0.0
18/02:00am 15.0 12.9 4.1 48 5.1 NNW 4 7 2 4 1017.3 1016.4 0.0
18/01:30am 15.6 12.8 3.1 43 5.7 N 7 13 4 7 1017.2 1016.3 0.0
18/01:00am 14.0 9.6 2.6 46 5.1 N 15 19 8 10 1017.0 1016.1 0.0
18/12:30am 14.9 11.4 1.4 40 5.9 NE 9 15 5 8 1017.0 1016.1 0.0
18/12:00am 14.1 11.3 -0.7 36 6.2 WSW 4 15 2 8 1016.9 1016.0 0.0
 
Date/Time
EST
Temp
°C
App
Temp
°C
Dew
Point
Rel
Hum
%
Delta-T
°C
Wind Press
QNH
hPa
Press
MSL
hPa
Rain
since 9 am
mm
Dir
 
Spd
km/h
Gust
km/h
Spd
kts
Gust
kts
17/11:30pm 15.1 13.0 -1.0 33 6.7 CALM 0 6 0 3 1016.6 1015.8 0.0
17/11:00pm 15.0 12.1 -1.1 33 6.7 SW 4 7 2 4 1016.6 1015.8 0.0
17/10:30pm 16.0 12.5 -1.5 30 7.3 WSW 7 11 4 6 1016.5 1015.7 0.0
17/10:00pm 17.4 14.0 -1.8 27 8.1 SSW 6 7 3 4 1016.4 1015.6 0.0
17/09:30pm 18.9 14.4 -3.3 22 9.2 SSW 11 13 6 7 1016.4 1015.6 0.0
17/09:00pm 19.9 15.1 -2.4 22 9.5 SW 13 15 7 8 1016.2 1015.4 0.0
17/08:30pm 19.9 15.9 -2.4 22 9.5 SSW 9 15 5 8 1016.0 1015.2 0.0
17/08:00pm 19.7 16.2 -1.4 24 9.1 WSW 7 9 4 5 1015.7 1014.9 0.0
17/07:30pm 21.6 17.7 -1.6 21 10.2 WSW 9 11 5 6 1015.3 1014.4 0.0
17/07:00pm 23.6 19.2 -2.1 18 11.4 WSW 11 11 6 6 1015.0 1014.1 0.0
17/06:30pm 25.0 21.0 -2.5 16 12.2 WSW 9 11 5 6 1014.6 1013.7 0.0
17/06:00pm 27.5 22.6 -3.3 13 13.8 SW 13 19 7 10 1014.2 1013.3 0.0
17/05:30pm 30.0 24.4 -2.5 12 15.0 SW 17 24 9 13 1014.0 1013.1 0.0
17/05:00pm 31.1 26.7 0.5 14 15.0 W 13 22 7 12 1013.7 1012.8 0.0
17/04:30pm 31.3 25.1 -0.4 13 15.3 WNW 22 28 12 15 1013.5 1012.6 0.0
17/04:00pm 31.6 26.4 -0.1 13 15.4 WSW 17 28 9 15 1013.4 1012.5 0.0
17/03:30pm 31.2 26.7 -0.5 13 15.3 WSW 13 30 7 16 1013.5 1012.6 0.0
17/03:00pm 31.5 26.7 2.7 16 14.7 W 17 32 9 17 1013.7 1012.8 0.0
17/02:30pm 31.5 27.0 4.3 18 14.3 W 17 26 9 14 1014.0 1013.1 0.0
17/02:00pm 31.1 25.5 3.2 17 14.3 W 22 33 12 18 1014.3 1013.4 0.0
17/01:30pm 30.2 26.6 4.8 20 13.3 SW 13 20 7 11 1014.8 1013.9 0.0
17/01:00pm 30.1 26.4 6.1 22 12.9 WNW 15 19 8 10 1015.2 1014.3 0.0
17/12:30pm 30.0 27.3 7.2 24 12.4 W 11 20 6 11 1015.9 1015.1 0.0
17/12:00pm 28.7 25.5 6.7 25 11.8 NW 13 24 7 13 1016.4 1015.6 0.0
17/11:30am 28.8 25.6 8.5 28 11.2 NNW 15 24 8 13 1017.1 1016.2 0.0
17/11:00am 27.0 23.4 8.4 31 10.2 NW 17 39 9 21 1017.6 1016.7 0.0
17/10:30am 26.4 23.7 8.8 33 9.7 NW 13 20 7 11 1018.1 1017.2 0.0
17/10:00am 25.1 22.8 10.6 40 8.2 NNW 13 19 7 10 1018.4 1017.5 0.0
17/09:30am 23.4 20.7 10.5 44 7.2 WNW 15 22 8 12 1018.7 1017.8 0.0
17/09:00am 22.5 19.1 9.3 43 7.2 NW 17 26 9 14 1018.9 1018.0 0.0
17/08:30am 21.7 18.6 10.2 48 6.3 NW 17 24 9 13 1018.8 1017.9 0.0
17/08:00am 21.0 18.7 11.9 56 5.1 NW 15 20 8 11 1018.6 1017.7 0.0
17/07:30am 17.5 16.5 11.1 66 3.5 N 7 9 4 5 1018.3 1017.4 0.0
17/07:00am 15.7 14.8 10.5 71 2.8 N 6 9 3 5 1018.0 1017.1 0.0
17/06:30am 13.9 13.8 9.3 74 2.4 CALM 0 4 0 2 1017.7 1016.8 0.0
17/06:00am 14.3 11.8 9.7 74 2.4 W 13 15 7 8 1017.3 1016.4 0.0
17/05:30am 15.0 11.6 10.4 74 2.4 W 19 30 10 16 1016.5 1015.7 0.0
17/05:00am 12.8 11.0 9.3 79 1.8 WSW 9 11 5 6 1015.7 1014.9 0.0
17/04:30am 12.2 10.0 7.9 75 2.1 W 9 11 5 6 1015.5 1014.6 0.0
17/04:00am 11.4 10.6 6.3 71 2.4 CALM 0 0 0 0 1015.1 1014.2 0.0
17/03:30am 12.9 10.5 6.9 67 2.9 W 9 9 5 5 1015.0 1014.1 0.0
17/03:00am 14.3 13.0 7.8 65 3.3 WNW 4 9 2 5 1015.0 1014.1 0.0
17/02:30am 12.4 10.4 6.2 66 3.0 SW 6 11 3 6 1015.3 1014.4 0.0
17/02:00am 12.7 11.1 6.5 66 3.0 WNW 4 9 2 5 1015.5 1014.6 0.0
17/01:30am 13.2 11.5 7.4 68 2.9 N 6 7 3 4 1015.6 1014.7 0.0
17/01:00am 12.6 10.1 6.4 66 3.0 WNW 9 9 5 5 1015.9 1015.1 0.0
17/12:30am 13.5 11.8 7.5 67 3.0 NNW 6 9 3 5 1016.3 1015.5 0.0
17/12:00am 13.8 11.8 6.2 60 3.7 SSW 6 7 3 4 1016.5 1015.7 0.0
 
Date/Time
EST
Temp
°C
App
Temp
°C
Dew
Point
Rel
Hum
%
Delta-T
°C
Wind Press
QNH
hPa
Press
MSL
hPa
Rain
since 9 am
mm
Dir
 
Spd
km/h
Gust
km/h
Spd
kts
Gust
kts
16/11:30pm 15.6 14.1 6.9 56 4.3 SSW 4 7 2 4 1016.5 1015.7 0.0
16/11:00pm 16.4 15.0 7.3 55 4.6 SSE 4 6 2 3 1016.6 1015.8 0.0
16/10:30pm 15.8 14.7 6.8 55 4.5 SSE 2 9 1 5 1016.4 1015.6 0.0
16/10:00pm 16.5 15.6 6.1 50 5.1 CALM 0 0 0 0 1016.4 1015.6 0.0
16/09:30pm 19.3 18.7 7.4 46 6.1 CALM 0 0 0 0 1016.4 1015.6 0.0
16/09:00pm 18.6 16.8 5.5 42 6.5 NE 4 9 2 5 1016.2 1015.4 0.0
16/08:30pm 21.1 18.1 5.9 37 7.7 NE 11 13 6 7 1016.0 1015.2 0.0
16/08:00pm 21.6 18.1 5.5 35 8.1 NE 13 15 7 8 1015.6 1014.7 0.0
16/07:30pm 21.5 18.2 2.7 29 9.0 NNE 9 13 5 7 1015.3 1014.4 0.0
16/07:00pm 23.2 19.9 2.7 26 9.9 NE 9 9 5 5 1014.8 1013.9 0.0
16/06:30pm 23.5 20.2 2.4 25 10.2 ENE 9 11 5 6 1014.3 1013.4 0.0
16/06:00pm 25.6 21.5 2.3 22 11.4 E 13 17 7 9 1014.0 1013.1 0.0
16/05:30pm 27.8 23.3 2.1 19 12.7 E 15 20 8 11 1013.8 1012.9 0.0
16/05:00pm 28.6 23.7 2.0 18 13.2 ESE 17 22 9 12 1013.6 1012.7 0.0
16/04:30pm 28.9 23.7 2.2 18 13.3 E 19 20 10 11 1013.5 1012.6 0.0
16/04:00pm 28.8 23.8 1.3 17 13.5 ESE 17 26 9 14 1013.7 1012.8 0.0
16/03:30pm 29.8 24.1 2.9 18 13.6 E 22 37 12 20 1013.8 1012.9 0.0
16/03:00pm 29.8 25.1 2.9 18 13.6 E 17 28 9 15 1013.9 1013.0 0.0
16/02:30pm 29.5 23.9 3.5 19 13.3 E 22 39 12 21 1014.2 1013.3 0.0
16/02:00pm 28.8 24.3 2.1 18 13.3 ENE 15 20 8 11 1014.6 1013.7 0.0
16/01:30pm 28.8 24.7 2.1 18 13.3 E 13 19 7 10 1015.1 1014.2 0.0
16/01:00pm 29.4 24.0 2.6 18 13.5 E 20 30 11 16 1015.5 1014.6 0.0
16/12:30pm 28.4 23.8 1.8 18 13.1 E 15 28 8 15 1016.1 1015.3 0.0
16/12:00pm 28.3 24.0 3.2 20 12.6 E 15 30 8 16 1016.5 1015.7 0.0
16/11:30am 27.1 23.5 4.8 24 11.5 E 13 20 7 11 1017.1 1016.2 0.0
16/11:00am 26.9 23.9 5.8 26 11.0 E 11 22 6 12 1017.7 1016.8 0.0
16/10:30am 25.5 21.9 5.1 27 10.5 N 13 20 7 11 1018.3 1017.4 0.0
16/10:00am 25.1 22.3 5.3 28 10.1 N 9 19 5 10 1018.7 1017.8 0.0
16/09:30am 23.7 21.0 5.6 31 9.3 N 9 13 5 7 1019.1 1018.2 0.0
16/09:00am 22.0 20.2 9.5 45 6.8 NNW 9 13 5 7 1019.2 1018.3 0.0
16/08:30am 20.3 19.5 11.8 58 4.8 NNW 7 11 4 6 1019.3 1018.4 0.0
16/08:00am 17.8 17.4 11.1 65 3.7 NNW 4 7 2 4 1019.2 1018.3 0.0
16/07:30am 14.9 14.8 9.5 70 2.8 CALM 0 0 0 0 1018.9 1018.0 0.0
16/07:00am 11.6 11.1 7.7 77 1.9 CALM 0 0 0 0 1018.5 1017.6 0.0
16/06:30am 9.4 8.2 6.5 82 1.4 W 2 6 1 3 1018.2 1017.3 0.0
16/06:00am 8.9 6.9 6.3 84 1.2 W 6 6 3 3 1017.9 1017.0 0.0
16/05:30am 9.0 7.0 6.1 82 1.3 W 6 7 3 4 1017.6 1016.7 0.0
16/05:00am 8.9 6.7 6.0 82 1.3 WSW 7 9 4 5 1017.4 1016.5 0.0
16/04:30am 9.3 7.7 6.2 81 1.4 NW 4 6 2 3 1017.1 1016.2 0.0
16/04:00am 10.0 9.1 6.0 76 1.9 CALM 0 0 0 0 1017.1 1016.2 0.0
16/03:30am 9.8 8.8 5.8 76 1.9 CALM 0 0 0 0 1016.8 1015.9 0.0
16/03:00am 10.6 9.7 6.2 74 2.1 CALM 0 0 0 0 1016.9 1016.0 0.0
16/02:30am 11.3 9.2 5.8 69 2.6 SW 6 7 3 4 1016.8 1015.9 0.0
16/02:00am 11.8 9.2 5.9 67 2.8 SSW 9 13 5 7 1016.8 1015.9 0.0
16/01:30am 12.3 9.8 6.6 68 2.7 WNW 9 13 5 7 1016.8 1015.9 0.0
16/01:00am 13.3 10.9 7.1 66 3.0 WSW 9 9 5 5 1017.1 1016.2 0.0
16/12:30am 12.4 10.3 6.0 65 3.0 SW 6 7 3 4 1017.2 1016.3 0.0
16/12:00am 13.9 11.8 6.0 59 3.8 SSW 6 9 3 5 1017.4 1016.5 0.0
 
Date/Time
EST
Temp
°C
App
Temp
°C
Dew
Point
Rel
Hum
%
Delta-T
°C
Wind Press
QNH
hPa
Press
MSL
hPa
Rain
since 9 am
mm
Dir
 
Spd
km/h
Gust
km/h
Spd
kts
Gust
kts
15/11:30pm 14.2 12.0 6.1 58 3.9 SW 7 9 4 5 1017.3 1016.4 0.0
15/11:00pm 15.7 13.7 6.4 54 4.6 WNW 6 9 3 5 1017.2 1016.3 0.0
15/10:30pm 16.3 12.6 6.2 51 5.0 SE 15 19 8 10 1017.0 1016.1 0.0
15/10:00pm 17.2 12.8 6.4 49 5.4 SE 19 20 10 11 1017.0 1016.1 0.0
15/09:30pm 18.0 14.7 6.5 47 5.8 E 13 17 7 9 1017.1 1016.2 0.0
15/09:00pm 18.3 15.3 6.2 45 6.0 E 11 13 6 7 1017.2 1016.3 0.0
15/08:30pm 18.7 15.4 6.2 44 6.3 E 13 15 7 8 1017.1 1016.2 0.0
15/08:00pm 20.5 17.7 6.8 41 7.0 NE 11 15 6 8 1016.8 1015.9 0.0
15/07:30pm 21.2 17.0 5.9 37 7.7 E 17 22 9 12 1016.2 1015.4 0.0
15/07:00pm 21.8 18.1 6.1 36 8.0 ESE 15 17 8 9 1015.8 1015.0 0.0
15/06:30pm 22.2 18.4 5.6 34 8.4 SE 15 15 8 8 1015.5 1014.6 0.0
15/06:00pm 24.8 21.7 5.6 29 9.9 SE 11 15 6 8 1015.3 1014.4 0.0

Other Formats:

Comma delimited format used in spreadsheet applications
http://www.bom.gov.au/fwo/IDQ60801/IDQ60801.94397.axf

JavaScript Object Notation format (JSON) in row-major order
http://www.bom.gov.au/fwo/IDQ60801/IDQ60801.94397.json